Flight Track Log - Related Links

Times and Time Zones

All times are in EST time to prevent confusion due to time zone crossing. See the EJA749 flight status page for this flight to view local times or setup timezone preferences in your user account.


Time Position Orientation Groundspeed Altitude Reporting Facility
EST Latitude Longitude Course Direction KTS MPH feet Rate Location/Type
Mon 10:11:49 AM 32.8333 -96.8167 111° Southeast 186 214 2,300  Level Dallas / Fort Worth TRACON
Mon 10:12:43 AM 32.7833 -96.7667 140° Southeast 282 325 6,400 3,851 Climbing Dallas / Fort Worth TRACON
Mon 10:14:17 AM 32.7453 -96.6306 108° East 313 360 11,800 3,238 Climbing Houston Center
Mon 10:14:49 AM 32.7492 -96.5711 86° East 315 362 13,200 2,870 Climbing Fort Worth Center
Mon 10:15:49 AM 32.7547 -96.4550 87° East 347 399 16,200 2,800 Climbing Fort Worth Center
Mon 10:16:49 AM 32.7600 -96.3389 87° East 347 399 18,800 1,700 Climbing Fort Worth Center
Mon 10:17:00 AM 32.5970 -96.0727 111° Southeast  Level Estimated
Mon 10:17:49 AM 32.7419 -96.2008 99° East 398 458 19,600  Level Fort Worth Center
Mon 10:18:49 AM 32.7406 -96.0600 91° East 423 487 22,100 1,700 Climbing Fort Worth Center
Mon 10:19:49 AM 32.7367 -95.9019 92° East 452 520 23,000 1,289 Climbing Fort Worth Center
Mon 10:20:50 AM 32.7344 -95.7364 91° East 478 550 24,700 2,350 Climbing Fort Worth Center
Mon 10:21:49 AM 32.7322 -95.5736 91° East 489 563 27,700 2,218 Climbing Fort Worth Center
Mon 10:22:49 AM 32.7278 -95.4081 92° East 495 570 29,100 1,450 Climbing Fort Worth Center
Mon 10:23:49 AM 32.7269 -95.2403 90° East 500 575 30,600 1,750 Climbing Fort Worth Center
Mon 10:24:49 AM 32.7219 -95.0700 92° East 505 581 32,600 1,900 Climbing Fort Worth Center
Mon 10:25:49 AM 32.7186 -94.8997 91° East 505 581 34,400 1,636 Climbing Fort Worth Center
Mon 10:26:50 AM 32.7172 -94.7294 91° East 511 588 35,900 1,450 Climbing Fort Worth Center
Mon 10:27:49 AM 32.7153 -94.5567 91° East 523 602 37,300 1,513 Climbing Fort Worth Center
Mon 10:28:49 AM 32.7114 -94.3889 92° East 516 594 38,900 1,400 Climbing Fort Worth Center
Mon 10:29:49 AM 32.6928 -94.2192 97° East 510 587 40,100 1,050 Climbing Fort Worth Center
Mon 10:30:49 AM 32.6550 -94.0578 105° East 508 585 41,000 450 Climbing Fort Worth Center
Mon 10:31:49 AM 32.6172 -93.8939 105° East 513 590 41,000  Level Fort Worth Center
Mon 10:32:49 AM 32.5769 -93.7231 106° East 521 600 41,000  Level Fort Worth Center
Mon 10:33:49 AM 32.5450 -93.5642 103° East 533 613 41,000  Level Fort Worth Center
Mon 10:34:49 AM 32.5011 -93.3689 105° East 555 639 41,000  Level Fort Worth Center
Mon 10:35:50 AM 32.4650 -93.2178 106° East 536 617 41,000  Level Fort Worth Center
Mon 10:37:41 AM 32.3944 -92.8933 104° East 543 625 41,000  Level Memphis Center
Mon 10:38:43 AM 32.3553 -92.7200 105° East 547 629 41,000  Level Memphis Center
Mon 10:39:45 AM 32.3167 -92.5469 105° East 549 632 41,000  Level Memphis Center
Mon 10:40:47 AM 32.2686 -92.3406 105° East 549 632 41,000  Level Memphis Center
Mon 10:41:49 AM 32.2289 -92.1669 105° East 551 634 41,000  Level Memphis Center
Mon 10:42:34 AM 32.2028 -92.0489 105° East 550 633 41,000  Level Houston Center
Mon 10:43:35 AM 32.1575 -91.8528 105° East 552 635 41,000  Level Houston Center
Mon 10:44:37 AM 32.1175 -91.6794 105° East 549 632 41,000  Level Houston Center
Mon 10:45:39 AM 32.0758 -91.5053 106° East 550 633 41,000  Level Houston Center
Mon 10:46:41 AM 32.0344 -91.3300 106° East 553 636 41,000  Level Houston Center
Mon 10:47:43 AM 31.9925 -91.1558 106° East 552 635 41,000  Level Houston Center
Mon 10:48:45 AM 31.9517 -90.9808 105° East 554 638 41,000  Level Houston Center
Mon 10:49:47 AM 31.9003 -90.7719 106° East 552 635 41,000  Level Houston Center
Mon 10:50:49 AM 31.8642 -90.6258 106° East 555 639 41,000  Level Houston Center
Mon 10:51:51 AM 31.8119 -90.4161 106° East 557 641 41,000  Level Houston Center
Mon 10:52:53 AM 31.7697 -90.2425 106° East 555 639 41,000  Level Houston Center
Mon 10:53:56 AM 31.7258 -90.0669 106° East 558 642 41,000  Level Houston Center
Mon 10:54:58 AM 31.6817 -89.8919 106° East 559 643 41,000  Level Houston Center
Mon 10:56:00 AM 31.6381 -89.7178 106° East 557 641 41,000  Level Houston Center
Mon 10:57:02 AM 31.5897 -89.5317 107° East 558 642 41,000  Level Houston Center
Mon 10:58:04 AM 31.5469 -89.3572 106° East 559 643 41,000  Level Houston Center
Mon 10:59:06 AM 31.5008 -89.1842 107° East 556 640 41,000  Level Houston Center
Mon 11:00:08 AM 31.4472 -88.9772 107° East 555 639 41,000  Level Houston Center
Mon 11:01:10 AM 31.4014 -88.8028 107° East 560 644 41,000  Level Houston Center
Mon 11:02:12 AM 31.3556 -88.6289 107° East 560 644 41,000  Level Houston Center
Mon 11:03:14 AM 31.3100 -88.4544 107° East 559 643 41,000  Level Houston Center
Mon 11:04:16 AM 31.2650 -88.2794 107° East 556 640 41,000  Level Houston Center
Mon 11:05:18 AM 31.2125 -88.0839 107° East 560 644 41,000  Level Houston Center
Mon 11:06:20 AM 31.1658 -87.9111 107° East 560 644 41,000  Level Houston Center
Mon 11:07:22 AM 31.1189 -87.7392 108° East 557 641 41,000  Level Houston Center
Mon 11:08:24 AM 31.0672 -87.5464 107° East 556 640 41,000  Level Houston Center
Mon 11:09:26 AM 30.9983 -87.3886 117° Southeast 550 633 41,000  Level Houston Center
Mon 11:10:33 AM 30.9017 -87.2550 130° Southeast 533 613 41,000  Level Jacksonville Center
Mon 11:11:33 AM 30.8058 -87.1225 130° Southeast 533 613 41,000  Level Jacksonville Center
Mon 11:12:33 AM 30.7119 -86.9950 131° Southeast 522 601 41,000  Level Jacksonville Center
Mon 11:13:33 AM 30.6158 -86.8656 131° Southeast 522 601 41,000  Level Jacksonville Center
Mon 11:14:33 AM 30.5217 -86.7339 130° Southeast 522 601 41,000  Level Jacksonville Center
Mon 11:15:33 AM 30.4275 -86.6072 131° Southeast 522 601 41,000  Level Jacksonville Center
Mon 11:16:33 AM 30.3350 -86.4783 130° Southeast 522 601 41,000  Level Jacksonville Center
Mon 11:17:33 AM 30.2383 -86.3522 132° Southeast 522 601 41,000  Level Jacksonville Center
Mon 11:18:33 AM 30.1439 -86.2192 129° Southeast 527 606 41,000  Level Jacksonville Center
Mon 11:19:33 AM 30.0489 -86.0958 132° Southeast 521 600 41,000  Level Jacksonville Center
Mon 11:20:33 AM 29.9517 -85.9681 131° Southeast 521 600 41,000  Level Jacksonville Center
Mon 11:21:33 AM 29.8547 -85.8406 131° Southeast 521 600 41,000  Level Jacksonville Center
Mon 11:22:33 AM 29.7614 -85.7133 130° Southeast 526 605 41,000  Level Jacksonville Center
Mon 11:23:33 AM 29.6642 -85.5839 131° Southeast 526 605 41,000  Level Jacksonville Center
Mon 11:24:33 AM 29.5686 -85.4569 131° Southeast 526 605 41,000  Level Jacksonville Center
Mon 11:25:33 AM 29.4708 -85.3306 132° Southeast 526 605 41,000  Level Jacksonville Center
Mon 11:26:33 AM 29.3772 -85.2042 130° Southeast 526 605 41,000  Level Jacksonville Center
Mon 11:27:33 AM 29.2792 -85.0781 132° Southeast 526 605 41,000  Level Jacksonville Center
Mon 11:28:33 AM 29.1853 -84.9522 131° Southeast 526 605 41,000  Level Jacksonville Center
Mon 11:29:33 AM 29.0892 -84.8267 131° Southeast 526 605 41,000  Level Jacksonville Center
Mon 11:31:39 AM 28.8817 -84.5594 132° Southeast 545 627 41,000  Level Miami Center
Mon 11:32:39 AM 28.7844 -84.4297 131° Southeast 534 615 41,000  Level Miami Center
Mon 11:33:39 AM 28.6886 -84.3097 132° Southeast 521 600 41,000  Level Miami Center
Mon 11:34:39 AM 28.5947 -84.1903 132° Southeast 516 594 41,000  Level Miami Center
Mon 11:35:39 AM 28.5031 -84.0708 131° Southeast 511 588 41,000  Level Miami Center
Mon 11:36:39 AM 28.4069 -83.9492 132° Southeast 511 588 41,000  Level Miami Center
Mon 11:37:39 AM 28.3128 -83.8278 131° Southeast 511 588 41,000  Level Miami Center
Mon 11:38:39 AM 28.2242 -83.7189 133° Southeast 511 588 41,000  Level Miami Center
Mon 11:39:39 AM 28.1256 -83.6000 133° Southeast 511 588 41,000  Level Miami Center
Mon 11:40:39 AM 28.0333 -83.4769 130° Southeast 511 588 41,000  Level Miami Center
Mon 11:41:39 AM 27.9386 -83.3586 132° Southeast 511 588 41,000  Level Miami Center
Mon 11:42:39 AM 27.8439 -83.2383 132° Southeast 511 588 41,000 -100 Level Miami Center
Mon 11:43:39 AM 27.7492 -83.1203 132° Southeast 511 588 40,800 -850 Descending Miami Center
Mon 11:44:39 AM 27.6561 -83.0006 131° Southeast 511 588 39,300 -1,800 Descending Miami Center
Mon 11:45:39 AM 27.5550 -82.8758 132° Southeast 498 573 37,200 -2,000 Descending Miami Center
Mon 11:46:39 AM 27.4719 -82.7661 130° Southeast 470 541 35,300 -1,850 Descending Miami Center
Mon 11:47:39 AM 27.3964 -82.6758 133° Southeast 452 520 33,500 -1,850 Descending Miami Center
Mon 11:48:39 AM 27.3167 -82.5783 133° Southeast 435 501 31,600 -1,250 Descending Miami Center
Mon 11:49:39 AM 27.2372 -82.4811 133° Southeast 429 494 31,000 -300 Descending Miami Center
Mon 11:50:39 AM 27.1536 -82.3767 132° Southeast 432 497 31,000 -250 Level Miami Center
Mon 11:51:39 AM 27.0531 -82.2739 138° Southeast 460 529 30,500 -1,450 Descending Miami Center
Mon 11:52:39 AM 26.9289 -82.1914 149° Southeast 477 549 28,100 -2,150 Descending Miami Center
Mon 11:53:39 AM 26.8492 -82.0831 130° Southeast 469 540 26,200 -1,900 Descending Miami Center
Mon 11:54:39 AM 26.7736 -81.9819 130° Southeast 441 507 24,300 -1,900 Descending Miami Center
Mon 11:55:39 AM 26.6997 -81.8836 130° Southeast 422 486 22,400 -1,900 Descending Miami Center
Mon 11:56:39 AM 26.6300 -81.7853 128° Southeast 417 480 20,500 -1,900 Descending Miami Center
Mon 11:57:39 AM 26.5581 -81.6872 129° Southeast 406 467 18,600 -1,700 Descending Miami Center
Mon 11:58:39 AM 26.5003 -81.6058 128° Southeast 393 452 17,100 -1,600 Descending Miami Center
Mon 11:59:39 AM 26.4342 -81.5175 130° Southeast 375 432 15,400 -1,500 Descending Miami Center
Mon 12:00:39 PM 26.3722 -81.4339 130° Southeast 359 413 14,100 -1,300 Descending Miami Center
Mon 12:01:39 PM 26.3142 -81.3550 129° Southeast 341 392 12,800 -1,300 Descending Miami Center
Mon 12:02:39 PM 26.2664 -81.2700 122° Southeast 330 380 11,500 -1,361 Descending Miami Center
Mon 12:03:38 PM 26.2147 -81.1847 124° Southeast 305 351 10,100 -1,300 Descending Miami Center
Mon 12:03:39 PM 26.2231 -81.1872 345° North 312 359 10,200 -1,377 Climbing Miami Center
Mon 12:04:39 PM 26.1756 -81.0975 121° Southeast 312 359 8,700 -1,385 Descending Miami Center
Mon 12:05:10 PM 26.1497 -81.0550 124° Southeast 301 346 8,100 -1,000 Descending Miami Center
Mon 12:05:39 PM 26.1358 -81.0269 119° Southeast 302 348 7,700 -1,475 Descending Miami Center
Mon 12:06:11 PM 26.1078 -80.9842 126° Southeast 274 315 6,600 -1,600 Descending Miami Center
Mon 12:06:39 PM 26.1047 -80.9494 96° East 291 335 6,100 -536 Descending Miami Center
Mon 12:07:07 PM 26.0933 -80.9050 106° East 275 316 6,100 -100 Level Miami Center
Mon 12:07:39 PM 26.0903 -80.8681 95° East 276 318 6,000  Descending Miami Center
Mon 12:08:08 PM 26.0789 -80.8214 105° East 278 320 6,100  Climbing Miami Center
Mon 12:08:39 PM 26.0800 -80.7797 88° East 271 312 6,000  Descending Miami Center
Mon 12:09:09 PM 26.0772 -80.7311 94° East 290 334 6,100  Climbing Miami Center
Mon 12:09:39 PM 26.0803 -80.6942 85° East 276 318 6,000 -492 Descending Miami Center
Mon 12:10:10 PM 26.0772 -80.6478 94° East 246 283 5,600 -800 Descending Miami Center
Mon 12:10:39 PM 26.0800 -80.6178 84° East 263 303 5,200 -581 Descending Miami Center
Mon 12:11:12 PM 26.0750 -80.5761 98° East 217 250 5,000 -200 Descending Miami Center
Mon 12:11:39 PM 26.0797 -80.5508 78° East 237 273 5,000  Level Miami Center
Mon 12:12:19 PM 26.0767 -80.5022 94° East 205 236 5,000  Level Miami Center
Mon 12:12:39 PM 26.0792 -80.4883 79° East 216 249 5,000 -393 Level Miami Center
Mon 12:13:20 PM 26.0761 -80.4372 94° East 213 245 4,600 -989 Descending Miami Center
Mon 12:14:10 PM 26.0753 -80.3864 91° East 214 246 3,500 -1,077 Descending Miami Center
Mon 12:15:17 PM 26.0747 -80.3217 91° East 176 203 2,500 -891 Descending Miami Center
Mon 12:16:18 PM 26.0742 -80.2661 91° East 168 193 1,600 -829 Descending Miami Center
Mon 12:17:20 PM 26.0753 -80.2200 88° East 135 155 800 -774 Descending Miami Center
Mon 12:19:00 PM 26.0667 -80.1500 180° South  Level FlightAware Approximate

Login

Don't have an account? Register now (free) for customized features, flight alerts, and more!